createdAt,value
2016-08-03T00:00:55.288Z,970.4
2016-08-03T00:01:55.284Z,970.42
2016-08-03T00:02:55.285Z,970.35
2016-08-03T00:03:55.284Z,970.37
2016-08-03T00:04:55.288Z,970.39
2016-08-03T00:05:55.288Z,970.37
2016-08-03T00:06:55.285Z,970.31
2016-08-03T00:07:55.288Z,970.32
2016-08-03T00:08:55.288Z,970.32
2016-08-03T00:09:55.288Z,970.29
2016-08-03T00:10:55.289Z,970.28
2016-08-03T00:11:55.288Z,970.32
2016-08-03T00:12:55.296Z,970.27
2016-08-03T00:13:55.292Z,970.24
2016-08-03T00:14:55.290Z,970.27
2016-08-03T00:15:55.290Z,970.26
2016-08-03T00:16:55.289Z,970.24
2016-08-03T00:17:55.289Z,970.19
2016-08-03T00:18:55.296Z,970.2
2016-08-03T00:20:55.296Z,970.2
2016-08-03T00:21:55.292Z,970.16
2016-08-03T00:22:55.304Z,970.16
2016-08-03T00:23:55.297Z,970.19
2016-08-03T00:24:55.297Z,970.15
2016-08-03T00:25:55.293Z,970.14
2016-08-03T00:26:55.293Z,970.09
2016-08-03T00:27:55.304Z,970.1
2016-08-03T00:28:55.300Z,970.09
2016-08-03T00:29:55.296Z,970.09
2016-08-03T00:30:55.296Z,970.09
2016-08-03T00:31:55.300Z,970.1
2016-08-03T00:32:55.301Z,970.12
2016-08-03T00:33:55.297Z,970.09
2016-08-03T00:34:55.297Z,970.12
2016-08-03T00:35:55.301Z,970.13
2016-08-03T00:36:55.304Z,970.14
2016-08-03T00:37:55.304Z,970.14
2016-08-03T00:38:55.304Z,970.14
2016-08-03T00:39:55.304Z,970.15
2016-08-03T00:40:55.306Z,970.13
2016-08-03T00:41:55.301Z,970.13
2016-08-03T00:42:55.305Z,970.07
2016-08-03T00:43:55.301Z,970.09
2016-08-03T00:44:55.306Z,970.04
2016-08-03T00:45:55.308Z,970.05
2016-08-03T00:46:55.309Z,970.05
2016-08-03T00:47:55.306Z,970.02
2016-08-03T00:48:55.310Z,970.05
2016-08-03T00:49:55.309Z,970
2016-08-03T00:50:55.309Z,970.02
2016-08-03T00:51:55.306Z,970.03
2016-08-03T00:52:55.309Z,970.02
2016-08-03T00:53:55.306Z,970.01
2016-08-03T00:54:55.310Z,970.03
2016-08-03T00:55:55.310Z,969.99
2016-08-03T00:56:55.309Z,970.01
2016-08-03T00:57:55.310Z,970.01
2016-08-03T00:58:55.313Z,970.03
2016-08-03T00:59:55.310Z,970.03
2016-08-03T01:00:55.314Z,970.02
2016-08-03T01:01:55.314Z,970
2016-08-03T01:02:55.310Z,969.99
2016-08-03T01:03:55.411Z,970.03
2016-08-03T01:04:55.314Z,970
2016-08-03T01:05:55.318Z,969.98
2016-08-03T01:06:55.314Z,970
2016-08-03T01:07:55.319Z,970
2016-08-03T01:08:55.318Z,970.03
2016-08-03T01:09:55.327Z,970.03
2016-08-03T01:10:55.319Z,970.03
2016-08-03T01:11:55.316Z,970.02
2016-08-03T01:12:55.319Z,970.02
2016-08-03T01:13:55.319Z,970
2016-08-03T01:14:55.319Z,970.04
2016-08-03T01:15:55.323Z,969.99
2016-08-03T01:16:55.323Z,970.01
2016-08-03T01:17:55.319Z,970.01
2016-08-03T01:18:55.323Z,970.02
2016-08-03T01:19:55.319Z,970.02
2016-08-03T01:20:55.323Z,970.03
2016-08-03T01:21:55.319Z,970.04
2016-08-03T01:22:55.319Z,970.02
2016-08-03T01:23:55.326Z,970
2016-08-03T01:24:55.327Z,970
2016-08-03T01:25:55.324Z,969.99
2016-08-03T01:26:55.327Z,969.99
2016-08-03T01:27:55.333Z,970.01
2016-08-03T01:29:55.323Z,969.97
2016-08-03T01:30:55.323Z,969.95
2016-08-03T01:31:55.327Z,969.94
2016-08-03T01:32:55.334Z,969.95
2016-08-03T01:33:55.327Z,969.9
2016-08-03T01:34:55.327Z,969.92
2016-08-03T01:35:55.327Z,969.92
2016-08-03T01:36:55.332Z,969.88
2016-08-03T01:37:55.331Z,969.88
2016-08-03T01:38:55.331Z,969.86
2016-08-03T01:39:55.331Z,969.84
2016-08-03T01:40:55.328Z,969.85
2016-08-03T01:41:55.332Z,969.81
2016-08-03T01:42:55.328Z,969.8
2016-08-03T01:44:55.328Z,969.77
2016-08-03T01:45:55.332Z,969.73
2016-08-03T01:46:55.328Z,969.73
2016-08-03T01:47:55.328Z,969.7
2016-08-03T01:48:55.335Z,969.7
2016-08-03T01:49:55.336Z,969.75
2016-08-03T01:50:55.336Z,969.72
2016-08-03T01:51:55.335Z,969.7
2016-08-03T01:52:55.336Z,969.69
2016-08-03T01:53:55.336Z,969.67
2016-08-03T01:54:55.332Z,969.64
2016-08-03T01:55:55.335Z,969.68
2016-08-03T01:56:55.332Z,969.65
2016-08-03T01:57:55.332Z,969.62
2016-08-03T01:58:55.335Z,969.61
2016-08-03T01:59:55.337Z,969.62
2016-08-03T02:00:55.336Z,969.59
2016-08-03T02:01:55.332Z,969.6
2016-08-03T02:02:55.336Z,969.63
2016-08-03T02:03:55.340Z,969.6
2016-08-03T02:04:55.336Z,969.59
2016-08-03T02:05:55.340Z,969.59
2016-08-03T02:06:55.338Z,969.55
2016-08-03T02:07:55.539Z,969.57
2016-08-03T02:08:55.336Z,969.52
2016-08-03T02:09:55.341Z,969.53
2016-08-03T02:10:55.337Z,969.58
2016-08-03T02:11:55.341Z,969.56
2016-08-03T02:12:55.338Z,969.59
2016-08-03T02:13:55.340Z,969.62
2016-08-03T02:14:55.346Z,969.62
2016-08-03T02:15:55.341Z,969.62
2016-08-03T02:16:55.344Z,969.6
2016-08-03T02:17:55.340Z,969.57
2016-08-03T02:18:55.345Z,969.57
2016-08-03T02:19:55.341Z,969.61
2016-08-03T02:20:55.344Z,969.61
2016-08-03T02:21:55.341Z,969.56
2016-08-03T02:22:55.346Z,969.59
2016-08-03T02:23:55.341Z,969.57
2016-08-03T02:24:55.341Z,969.57
2016-08-03T02:25:55.344Z,969.56
2016-08-03T02:26:55.346Z,969.58
2016-08-03T02:27:55.345Z,969.58
2016-08-03T02:28:55.341Z,969.55
2016-08-03T02:29:55.344Z,969.56
2016-08-03T02:30:55.348Z,969.55
2016-08-03T02:31:55.346Z,969.56
2016-08-03T02:32:55.349Z,969.58
2016-08-03T02:33:55.349Z,969.6
2016-08-03T02:34:55.348Z,969.56
2016-08-03T02:35:55.348Z,969.6
2016-08-03T02:36:55.345Z,969.59
2016-08-03T02:37:55.349Z,969.53
2016-08-03T02:38:55.348Z,969.54
2016-08-03T02:39:55.349Z,969.53
2016-08-03T02:40:55.348Z,969.52
2016-08-03T02:41:55.352Z,969.53
2016-08-03T02:42:55.345Z,969.54
2016-08-03T02:43:55.349Z,969.52
2016-08-03T02:44:55.349Z,969.56
2016-08-03T02:45:55.348Z,969.52
2016-08-03T02:46:55.349Z,969.53
2016-08-03T02:47:55.353Z,969.52
2016-08-03T02:48:55.352Z,969.48
2016-08-03T02:49:55.353Z,969.46
2016-08-03T02:50:55.349Z,969.47
2016-08-03T02:51:55.353Z,969.44
2016-08-03T02:52:55.354Z,969.44
2016-08-03T02:53:55.353Z,969.44
2016-08-03T02:54:55.350Z,969.44
2016-08-03T02:55:55.353Z,969.43
2016-08-03T02:56:55.350Z,969.4
2016-08-03T02:57:55.353Z,969.38
2016-08-03T02:58:55.349Z,969.35
2016-08-03T02:59:55.350Z,969.28
2016-08-03T03:00:55.353Z,969.3
2016-08-03T03:01:55.349Z,969.29
2016-08-03T03:02:55.358Z,969.26
2016-08-03T03:03:55.402Z,969.23
2016-08-03T03:04:55.355Z,969.21
2016-08-03T03:05:55.355Z,969.22
2016-08-03T03:06:55.357Z,969.22
2016-08-03T03:07:55.354Z,969.22
2016-08-03T03:08:55.357Z,969.21
2016-08-03T03:09:55.354Z,969.18
2016-08-03T03:10:55.353Z,969.19
2016-08-03T03:11:55.354Z,969.22
2016-08-03T03:12:55.354Z,969.22
2016-08-03T03:13:55.358Z,969.21
2016-08-03T03:14:55.355Z,969.16
2016-08-03T03:15:55.358Z,969.14
2016-08-03T03:16:55.355Z,969.15
2016-08-03T03:17:55.359Z,969.13
2016-08-03T03:18:55.359Z,969.11
2016-08-03T03:19:55.359Z,969.13
2016-08-03T03:20:55.358Z,969.1
2016-08-03T03:21:55.358Z,969.11
2016-08-03T03:22:55.359Z,969.04
2016-08-03T03:23:55.354Z,969.07
2016-08-03T03:24:55.362Z,969.1
2016-08-03T03:25:55.355Z,969.1
2016-08-03T03:26:55.355Z,969.08
2016-08-03T03:27:55.359Z,969.11
2016-08-03T03:28:55.360Z,969.14
2016-08-03T03:29:55.363Z,969.17
2016-08-03T03:30:55.359Z,969.16
2016-08-03T03:31:55.363Z,969.17
2016-08-03T03:32:55.360Z,969.15
2016-08-03T03:33:55.363Z,969.16
2016-08-03T03:34:55.359Z,969.16
2016-08-03T03:35:55.360Z,969.14
2016-08-03T03:36:55.364Z,969.13
2016-08-03T03:37:55.359Z,969.14
2016-08-03T03:38:55.369Z,969.16
2016-08-03T03:39:55.359Z,969.14
2016-08-03T03:40:55.360Z,969.11
2016-08-03T03:41:55.364Z,969.12
2016-08-03T03:42:55.360Z,969.08
2016-08-03T03:43:55.363Z,969.09
2016-08-03T03:44:55.359Z,969.07
2016-08-03T03:45:55.359Z,969.05
2016-08-03T03:46:55.367Z,969.05
2016-08-03T03:47:55.359Z,969.04
2016-08-03T03:48:55.361Z,969.07
2016-08-03T03:49:55.360Z,969.05
2016-08-03T03:50:55.360Z,969.03
2016-08-03T03:51:55.364Z,969.01
2016-08-03T03:52:55.360Z,968.99
2016-08-03T03:53:55.367Z,969.01
2016-08-03T03:54:55.363Z,969.03
2016-08-03T03:55:55.359Z,969.03
2016-08-03T03:56:55.364Z,969.06
2016-08-03T03:57:55.364Z,969.05
2016-08-03T03:58:55.367Z,969.08
2016-08-03T03:59:55.364Z,969.08
2016-08-03T04:00:55.367Z,969.05
2016-08-03T04:01:55.368Z,969.09
2016-08-03T04:02:55.365Z,969.11
2016-08-03T04:03:55.368Z,969.11
2016-08-03T04:04:55.365Z,969.11
2016-08-03T04:05:55.365Z,969.18
2016-08-03T04:06:55.368Z,969.17
2016-08-03T04:07:55.369Z,969.18
2016-08-03T04:08:55.368Z,969.14
2016-08-03T04:09:55.368Z,969.17
2016-08-03T04:10:55.364Z,969.13
2016-08-03T04:11:55.364Z,969.12
2016-08-03T04:12:55.369Z,969.14
2016-08-03T04:13:55.365Z,969.12
2016-08-03T04:14:55.368Z,969.07
2016-08-03T04:15:55.369Z,969.08
2016-08-03T04:16:55.368Z,969.08
2016-08-03T04:17:55.369Z,969.1
2016-08-03T04:18:55.365Z,969.07
2016-08-03T04:19:55.364Z,969.08
2016-08-03T04:20:55.365Z,969.09
2016-08-03T04:21:55.365Z,969.1
2016-08-03T04:22:55.372Z,969.08
2016-08-03T04:23:55.372Z,969.09
2016-08-03T04:24:55.365Z,969.06
2016-08-03T04:25:55.365Z,969.06
2016-08-03T04:26:55.368Z,969.04
2016-08-03T04:27:55.365Z,969.09
2016-08-03T04:28:55.373Z,969.05
2016-08-03T04:29:55.372Z,969.04
2016-08-03T04:30:55.372Z,969.04
2016-08-03T04:31:55.372Z,969.07
2016-08-03T04:32:55.369Z,969.05
2016-08-03T04:33:55.372Z,969.06
2016-08-03T04:34:55.373Z,969.03
2016-08-03T04:35:55.369Z,969
2016-08-03T04:36:55.373Z,968.97
2016-08-03T04:37:55.373Z,969.01
2016-08-03T04:38:55.373Z,968.93
2016-08-03T04:39:55.373Z,968.93
2016-08-03T04:40:55.368Z,968.97
2016-08-03T04:41:55.373Z,968.95
2016-08-03T04:42:55.369Z,968.93
2016-08-03T04:43:55.370Z,968.92
2016-08-03T04:44:55.373Z,968.92
2016-08-03T04:45:55.370Z,968.94
2016-08-03T04:46:55.375Z,968.93
2016-08-03T04:47:55.374Z,968.96
2016-08-03T04:48:55.374Z,968.97
2016-08-03T04:49:55.374Z,968.98
2016-08-03T04:50:55.370Z,968.96
2016-08-03T04:51:55.375Z,968.99
2016-08-03T04:52:55.371Z,968.98
2016-08-03T04:53:55.370Z,968.96
2016-08-03T04:54:55.375Z,968.99
2016-08-03T04:55:55.374Z,969.01
2016-08-03T04:56:55.379Z,969
2016-08-03T04:57:55.370Z,969.05
2016-08-03T04:58:55.378Z,969.05
2016-08-03T05:00:55.374Z,969.06
2016-08-03T05:01:55.374Z,969.11
2016-08-03T05:02:55.378Z,969.09
2016-08-03T05:03:55.523Z,969.08
2016-08-03T05:04:55.378Z,969.12
2016-08-03T05:05:55.375Z,969.07
2016-08-03T05:06:55.378Z,969.07
2016-08-03T05:07:55.375Z,969.08
2016-08-03T05:08:55.379Z,969.07
2016-08-03T05:09:55.374Z,969.04
2016-08-03T05:10:55.379Z,969.06
2016-08-03T05:11:55.375Z,969.05
2016-08-03T05:12:55.379Z,969.01
2016-08-03T05:13:55.375Z,969.04
2016-08-03T05:15:55.378Z,969.02
2016-08-03T05:16:55.378Z,969.05
2016-08-03T05:17:55.383Z,969.04
2016-08-03T05:18:55.379Z,969.02
2016-08-03T05:19:55.378Z,969.05
2016-08-03T05:20:55.383Z,969.02
2016-08-03T05:21:55.378Z,969.04
2016-08-03T05:22:55.383Z,969.04
2016-08-03T05:23:55.383Z,968.99
2016-08-03T05:24:55.378Z,968.97
2016-08-03T05:25:55.383Z,968.95
2016-08-03T05:26:55.382Z,968.93
2016-08-03T05:27:55.386Z,968.96
2016-08-03T05:28:55.383Z,968.94
2016-08-03T05:30:55.387Z,968.95
2016-08-03T05:31:55.387Z,968.91
2016-08-03T05:32:55.387Z,968.93
2016-08-03T05:33:55.388Z,968.92
2016-08-03T05:34:55.391Z,968.91
2016-08-03T05:35:55.391Z,968.89
2016-08-03T05:36:55.391Z,968.9
2016-08-03T05:37:55.388Z,968.92
2016-08-03T05:38:55.388Z,968.91
2016-08-03T05:39:55.391Z,968.89
2016-08-03T05:40:55.391Z,968.85
2016-08-03T05:41:55.395Z,968.88
2016-08-03T05:42:55.392Z,968.9
2016-08-03T05:43:55.396Z,968.88
2016-08-03T05:44:55.395Z,968.84
2016-08-03T05:45:55.392Z,968.83
2016-08-03T05:46:55.400Z,968.84
2016-08-03T05:47:55.396Z,968.81
2016-08-03T05:48:55.405Z,968.85
2016-08-03T05:49:55.397Z,968.8
2016-08-03T05:50:55.399Z,968.79
2016-08-03T05:51:55.399Z,968.8
2016-08-03T05:52:55.402Z,968.82
2016-08-03T05:53:55.414Z,968.79
2016-08-03T05:54:55.404Z,968.83
2016-08-03T05:55:55.401Z,968.86
2016-08-03T05:56:55.404Z,968.85
2016-08-03T05:57:55.407Z,968.89
2016-08-03T05:58:55.407Z,968.86
2016-08-03T05:59:55.408Z,968.87
2016-08-03T06:00:55.408Z,968.92
2016-08-03T06:01:55.408Z,968.85
2016-08-03T06:02:55.409Z,968.89
2016-08-03T06:03:55.411Z,968.83
2016-08-03T06:04:55.416Z,968.84
2016-08-03T06:05:55.412Z,968.82
2016-08-03T06:06:55.412Z,968.84
2016-08-03T06:07:55.415Z,968.8
2016-08-03T06:08:55.428Z,968.81
2016-08-03T06:09:55.417Z,968.81
2016-08-03T06:10:55.420Z,968.81
2016-08-03T06:11:55.417Z,968.78
2016-08-03T06:12:55.424Z,968.82
2016-08-03T06:13:55.419Z,968.77
2016-08-03T06:14:55.420Z,968.81
2016-08-03T06:15:55.424Z,968.78
2016-08-03T06:16:55.425Z,968.76
2016-08-03T06:17:55.428Z,968.72
2016-08-03T06:18:55.425Z,968.73
2016-08-03T06:19:55.431Z,968.68
2016-08-03T06:20:55.428Z,968.7
2016-08-03T06:21:55.432Z,968.67
2016-08-03T06:22:55.433Z,968.64
2016-08-03T06:23:55.437Z,968.66
2016-08-03T06:24:55.435Z,968.66
2016-08-03T06:25:55.441Z,968.62
2016-08-03T06:26:55.440Z,968.62
2016-08-03T06:27:55.440Z,968.64
2016-08-03T06:28:55.440Z,968.63
2016-08-03T06:29:55.441Z,968.64
2016-08-03T06:30:55.444Z,968.65
2016-08-03T06:31:55.449Z,968.66
2016-08-03T06:32:55.448Z,968.6
2016-08-03T06:33:55.445Z,968.64
2016-08-03T06:34:55.452Z,968.62
2016-08-03T06:35:55.457Z,968.6
2016-08-03T06:36:55.453Z,968.61
2016-08-03T06:37:55.457Z,968.6
2016-08-03T06:38:55.457Z,968.59
2016-08-03T06:39:55.453Z,968.59
2016-08-03T06:40:55.457Z,968.55
2016-08-03T06:41:55.461Z,968.56
2016-08-03T06:42:55.464Z,968.56
2016-08-03T06:43:55.462Z,968.57
2016-08-03T06:44:55.462Z,968.57
2016-08-03T06:45:55.466Z,968.55
2016-08-03T06:46:55.469Z,968.6
2016-08-03T06:47:55.473Z,968.6
2016-08-03T06:48:55.473Z,968.59
2016-08-03T06:49:55.472Z,968.61
2016-08-03T06:50:55.475Z,968.58
2016-08-03T06:51:55.473Z,968.63
2016-08-03T06:52:55.478Z,968.62
2016-08-03T06:53:55.482Z,968.6
2016-08-03T06:54:55.482Z,968.63
2016-08-03T06:55:55.482Z,968.58
2016-08-03T06:56:55.486Z,968.6
2016-08-03T06:57:55.487Z,968.61
2016-08-03T06:58:55.490Z,968.58
2016-08-03T06:59:55.494Z,968.55
2016-08-03T07:00:55.494Z,968.61
2016-08-03T07:01:55.494Z,968.59
2016-08-03T07:02:55.497Z,968.57
2016-08-03T07:03:55.551Z,968.62
2016-08-03T07:04:55.502Z,968.59
2016-08-03T07:05:55.502Z,968.63
2016-08-03T07:06:55.506Z,968.55
2016-08-03T07:07:55.506Z,968.57
2016-08-03T07:08:55.506Z,968.6
2016-08-03T07:09:55.510Z,968.54
2016-08-03T07:10:55.510Z,968.54
2016-08-03T07:11:55.510Z,968.54
2016-08-03T07:12:55.511Z,968.56
2016-08-03T07:13:55.519Z,968.59
2016-08-03T07:14:55.514Z,968.58
2016-08-03T07:15:55.523Z,968.58
2016-08-03T07:16:55.523Z,968.58
2016-08-03T07:17:55.527Z,968.59
2016-08-03T07:18:55.522Z,968.58
2016-08-03T07:19:55.527Z,968.55
2016-08-03T07:20:55.527Z,968.54
2016-08-03T07:21:55.528Z,968.52
2016-08-03T07:22:55.535Z,968.51
2016-08-03T07:23:55.535Z,968.47
2016-08-03T07:24:55.539Z,968.5
2016-08-03T07:25:55.539Z,968.47
2016-08-03T07:26:55.540Z,968.48
2016-08-03T07:27:55.543Z,968.47
2016-08-03T07:28:55.544Z,968.45
2016-08-03T07:29:55.548Z,968.47
2016-08-03T07:30:55.550Z,968.45
2016-08-03T07:31:55.555Z,968.46
2016-08-03T07:32:55.555Z,968.43
2016-08-03T07:33:55.554Z,968.47
2016-08-03T07:34:55.555Z,968.49
2016-08-03T07:35:55.559Z,968.46
2016-08-03T07:36:55.560Z,968.46
2016-08-03T07:37:55.560Z,968.43
2016-08-03T07:38:55.567Z,968.45
2016-08-03T07:39:55.571Z,968.43
2016-08-03T07:40:55.571Z,968.47
2016-08-03T07:41:55.571Z,968.49
2016-08-03T07:42:55.576Z,968.47
2016-08-03T07:43:55.576Z,968.44
2016-08-03T07:44:55.579Z,968.44
2016-08-03T07:45:55.580Z,968.45
2016-08-03T07:46:55.581Z,968.44
2016-08-03T07:47:55.588Z,968.43
2016-08-03T07:48:55.585Z,968.45
2016-08-03T07:49:55.590Z,968.46
2016-08-03T07:50:55.593Z,968.42
2016-08-03T07:51:55.592Z,968.33
2016-08-03T07:52:55.597Z,968.35
2016-08-03T07:53:55.597Z,968.31
2016-08-03T07:54:55.601Z,968.31
2016-08-03T07:55:55.604Z,968.34
2016-08-03T07:56:55.604Z,968.35
2016-08-03T07:57:55.608Z,968.32
2016-08-03T07:58:55.609Z,968.28
2016-08-03T07:59:55.613Z,968.29
2016-08-03T08:00:55.617Z,968.3
2016-08-03T08:01:55.612Z,968.26
2016-08-03T08:02:55.620Z,968.28
2016-08-03T08:03:55.621Z,968.25
2016-08-03T08:04:55.625Z,968.23
2016-08-03T08:05:55.621Z,968.2
2016-08-03T08:06:55.625Z,968.18
2016-08-03T08:07:55.629Z,968.15
2016-08-03T08:08:55.633Z,968.18
2016-08-03T08:09:55.632Z,968.16
2016-08-03T08:10:55.633Z,968.19
2016-08-03T08:11:55.637Z,968.13
2016-08-03T08:12:55.637Z,968.17
2016-08-03T08:13:55.640Z,968.19
2016-08-03T08:14:55.640Z,968.15
2016-08-03T08:15:55.648Z,968.17
2016-08-03T08:16:55.644Z,968.14
2016-08-03T08:17:55.648Z,968.1
2016-08-03T08:18:55.648Z,968.14
2016-08-03T08:19:55.656Z,968.15
2016-08-03T08:20:55.661Z,968.15
2016-08-03T08:21:55.660Z,968.15
2016-08-03T08:22:55.661Z,968.12
2016-08-03T08:23:55.661Z,968.15
2016-08-03T08:24:55.669Z,968.1
2016-08-03T08:25:55.670Z,968.14
2016-08-03T08:26:55.673Z,968.11
2016-08-03T08:27:55.678Z,968.1
2016-08-03T08:28:55.677Z,968.09
2016-08-03T08:29:55.677Z,968.07
2016-08-03T08:30:55.681Z,968.14
2016-08-03T08:31:55.688Z,968.06
2016-08-03T08:32:55.680Z,968.08
2016-08-03T08:33:55.689Z,968.09
2016-08-03T08:34:55.690Z,968.09
2016-08-03T08:35:55.693Z,968.04
2016-08-03T08:36:55.693Z,968.06
2016-08-03T08:37:55.697Z,968.04
2016-08-03T08:38:55.701Z,968.05
2016-08-03T08:39:55.702Z,968.03
2016-08-03T08:40:55.706Z,968.03
2016-08-03T08:41:55.705Z,968
2016-08-03T08:42:55.710Z,967.97
2016-08-03T08:43:55.709Z,968.05
2016-08-03T08:44:55.714Z,968.01
2016-08-03T08:46:55.718Z,967.98
2016-08-03T08:47:55.722Z,968.01
2016-08-03T08:48:55.722Z,968.01
2016-08-03T08:49:55.726Z,968.04
2016-08-03T08:50:55.727Z,968.04
2016-08-03T08:51:55.725Z,968
2016-08-03T08:52:55.733Z,967.97
2016-08-03T08:53:55.738Z,968.04
2016-08-03T08:54:55.733Z,967.99
2016-08-03T08:55:55.742Z,968
2016-08-03T08:56:55.738Z,967.96
2016-08-03T08:57:55.746Z,968
2016-08-03T08:58:55.746Z,968.02
2016-08-03T08:59:55.747Z,967.98
2016-08-03T09:01:55.750Z,967.99
2016-08-03T09:02:55.754Z,967.98
2016-08-03T09:03:55.809Z,967.97
2016-08-03T09:04:55.758Z,967.97
2016-08-03T09:05:55.766Z,967.96
2016-08-03T09:06:55.766Z,967.92
2016-08-03T09:07:55.766Z,967.92
2016-08-03T09:08:55.774Z,967.92
2016-08-03T09:09:55.770Z,967.9
2016-08-03T09:10:55.774Z,967.9
2016-08-03T09:11:55.786Z,967.92
2016-08-03T09:12:55.779Z,967.91
2016-08-03T09:13:55.787Z,967.88
2016-08-03T09:14:55.786Z,967.86
2016-08-03T09:16:55.790Z,967.85
2016-08-03T09:17:55.794Z,967.87
2016-08-03T09:18:55.794Z,967.84
2016-08-03T09:19:55.799Z,967.84
2016-08-03T09:20:55.802Z,967.86
2016-08-03T09:21:55.798Z,967.87
2016-08-03T09:22:55.998Z,967.82
2016-08-03T09:23:55.806Z,967.84
2016-08-03T09:24:55.807Z,967.83
2016-08-03T09:25:55.814Z,967.81
2016-08-03T09:26:55.811Z,967.82
2016-08-03T09:27:55.815Z,967.8
2016-08-03T09:28:55.820Z,967.81
2016-08-03T09:29:55.820Z,967.81
2016-08-03T09:31:55.827Z,967.8
2016-08-03T09:32:55.831Z,967.79
2016-08-03T09:33:55.832Z,967.76
2016-08-03T09:34:55.835Z,967.8
2016-08-03T09:35:55.839Z,967.76
2016-08-03T09:36:55.836Z,967.74
2016-08-03T09:37:55.855Z,967.76
2016-08-03T09:38:55.840Z,967.75
2016-08-03T09:39:55.844Z,967.72
2016-08-03T09:40:55.852Z,967.72
2016-08-03T09:41:55.848Z,967.71
2016-08-03T09:42:55.852Z,967.71
2016-08-03T09:43:55.855Z,967.71
2016-08-03T09:44:55.855Z,967.75
2016-08-03T09:46:55.863Z,967.67
2016-08-03T09:47:55.867Z,967.65
2016-08-03T09:48:55.867Z,967.66
2016-08-03T09:49:55.871Z,967.64
2016-08-03T09:50:55.875Z,967.67
2016-08-03T09:51:55.873Z,967.64
2016-08-03T09:52:55.875Z,967.64
2016-08-03T09:53:55.879Z,967.63
2016-08-03T09:54:55.880Z,967.65
2016-08-03T09:55:55.884Z,967.62
2016-08-03T09:56:55.885Z,967.6
2016-08-03T09:57:55.888Z,967.6
2016-08-03T09:58:55.896Z,967.55
2016-08-03T09:59:55.896Z,967.6
2016-08-03T10:00:55.896Z,967.57
2016-08-03T10:01:55.900Z,967.56
2016-08-03T10:02:55.904Z,967.61
2016-08-03T10:03:55.908Z,967.57
2016-08-03T10:04:55.908Z,967.56
2016-08-03T10:05:55.912Z,967.56
2016-08-03T10:06:55.912Z,967.54
2016-08-03T10:07:55.912Z,967.55
2016-08-03T10:08:55.922Z,967.49
2016-08-03T10:09:55.916Z,967.52
2016-08-03T10:10:55.924Z,967.46
2016-08-03T10:11:55.920Z,967.48
2016-08-03T10:12:55.924Z,967.53
2016-08-03T10:13:55.929Z,967.51
2016-08-03T10:14:55.932Z,967.5
2016-08-03T10:15:55.936Z,967.46
2016-08-03T10:16:55.933Z,967.46
2016-08-03T10:17:55.940Z,967.52
2016-08-03T10:18:55.944Z,967.44
2016-08-03T10:19:55.940Z,967.43
2016-08-03T10:20:55.945Z,967.46
2016-08-03T10:21:55.953Z,967.47
2016-08-03T10:22:55.950Z,967.45
2016-08-03T10:23:55.961Z,967.44
2016-08-03T10:24:55.956Z,967.46
2016-08-03T10:25:55.957Z,967.45
2016-08-03T10:26:55.960Z,967.44
2016-08-03T10:27:55.964Z,967.44
2016-08-03T10:28:55.969Z,967.43
2016-08-03T10:29:55.965Z,967.4
2016-08-03T10:30:55.970Z,967.43
2016-08-03T10:31:55.977Z,967.48
2016-08-03T10:32:55.974Z,967.37
2016-08-03T10:33:55.977Z,967.4
2016-08-03T10:34:55.981Z,967.37
2016-08-03T10:35:55.981Z,967.35
2016-08-03T10:36:55.989Z,967.32
2016-08-03T10:37:55.988Z,967.34
2016-08-03T10:38:55.994Z,967.28
2016-08-03T10:39:55.994Z,967.28
2016-08-03T10:40:55.996Z,967.28
2016-08-03T10:41:56.001Z,967.31
2016-08-03T10:42:56.001Z,967.35
2016-08-03T10:43:56.006Z,967.26
2016-08-03T10:44:56.004Z,967.28
2016-08-03T10:45:56.009Z,967.28
2016-08-03T10:46:56.013Z,967.26
2016-08-03T10:47:56.014Z,967.25
2016-08-03T10:48:56.020Z,967.24
2016-08-03T10:49:56.021Z,967.24
2016-08-03T10:50:56.022Z,967.26
2016-08-03T10:51:56.022Z,967.27
2016-08-03T10:52:56.026Z,967.26
2016-08-03T10:53:56.030Z,967.26
2016-08-03T10:54:56.030Z,967.28
2016-08-03T10:55:56.030Z,967.23
2016-08-03T10:56:56.037Z,967.22
2016-08-03T10:57:56.034Z,967.24
2016-08-03T10:58:56.042Z,967.19
2016-08-03T10:59:56.041Z,967.18
2016-08-03T11:00:56.043Z,967.18
2016-08-03T11:01:56.049Z,967.2
2016-08-03T11:02:56.049Z,967.14
2016-08-03T11:03:56.049Z,967.2
2016-08-03T11:04:56.057Z,967.2
2016-08-03T11:05:56.057Z,967.16
2016-08-03T11:06:56.058Z,967.17
2016-08-03T11:07:56.062Z,967.15
2016-08-03T11:08:56.066Z,967.11
2016-08-03T11:09:56.062Z,967.09
2016-08-03T11:10:56.066Z,967.18
2016-08-03T11:11:56.075Z,967.09
2016-08-03T11:12:56.222Z,967.07
2016-08-03T11:13:56.079Z,967.03
2016-08-03T11:14:56.075Z,967.06
2016-08-03T11:15:56.079Z,967.05
2016-08-03T11:16:56.087Z,967.02
2016-08-03T11:17:56.082Z,967
2016-08-03T11:18:56.087Z,966.98
2016-08-03T11:19:56.090Z,967
2016-08-03T11:20:56.091Z,966.99
2016-08-03T11:21:56.094Z,966.98
2016-08-03T11:22:56.098Z,966.93
2016-08-03T11:23:56.098Z,966.94
2016-08-03T11:24:56.102Z,966.97
2016-08-03T11:25:56.106Z,966.93
2016-08-03T11:26:56.106Z,966.97
2016-08-03T11:27:56.111Z,967
2016-08-03T11:28:56.111Z,967.01
2016-08-03T11:29:56.111Z,966.95
2016-08-03T11:30:56.118Z,966.99
2016-08-03T11:31:56.114Z,966.97
2016-08-03T11:32:56.123Z,966.96
2016-08-03T11:33:56.127Z,967
2016-08-03T11:34:56.124Z,966.97
2016-08-03T11:35:56.131Z,966.96
2016-08-03T11:36:56.126Z,966.92
2016-08-03T11:37:56.135Z,966.91
2016-08-03T11:38:56.139Z,966.97
2016-08-03T11:39:56.135Z,966.97
2016-08-03T11:40:56.140Z,967.01
2016-08-03T11:41:56.147Z,966.95
2016-08-03T11:42:56.144Z,966.97
2016-08-03T11:43:56.151Z,966.98
2016-08-03T11:44:56.151Z,966.93
2016-08-03T11:45:56.155Z,966.86
2016-08-03T11:46:56.155Z,966.87
2016-08-03T11:47:56.155Z,966.87
2016-08-03T11:48:56.159Z,966.87
2016-08-03T11:49:56.160Z,966.82
2016-08-03T11:50:56.163Z,966.83
2016-08-03T11:51:56.168Z,966.88
2016-08-03T11:52:56.168Z,966.87
2016-08-03T11:53:56.167Z,966.84
2016-08-03T11:54:56.174Z,966.87
2016-08-03T11:55:56.176Z,966.9
2016-08-03T11:56:56.179Z,966.81
2016-08-03T11:57:56.180Z,966.87
2016-08-03T11:58:56.184Z,966.88
2016-08-03T11:59:56.187Z,966.88
2016-08-03T12:00:56.188Z,966.86
2016-08-03T12:01:56.191Z,966.88
2016-08-03T12:02:56.191Z,966.86
2016-08-03T12:03:56.248Z,966.87
2016-08-03T12:04:56.199Z,966.83
2016-08-03T12:05:56.199Z,966.82
2016-08-03T12:06:56.203Z,966.85
2016-08-03T12:07:56.204Z,966.8
2016-08-03T12:08:56.210Z,966.73
2016-08-03T12:09:56.211Z,966.8
2016-08-03T12:10:56.208Z,966.78
2016-08-03T12:11:56.215Z,966.83
2016-08-03T12:12:56.216Z,966.81
2016-08-03T12:13:56.220Z,966.84
2016-08-03T12:14:56.226Z,966.82
2016-08-03T12:15:56.219Z,966.79
2016-08-03T12:16:56.227Z,966.82
2016-08-03T12:17:56.232Z,966.77
2016-08-03T12:18:56.232Z,966.75
2016-08-03T12:19:56.236Z,966.8
2016-08-03T12:20:56.236Z,966.75
2016-08-03T12:21:56.239Z,966.76
2016-08-03T12:22:56.236Z,966.74
2016-08-03T12:23:56.243Z,966.79
2016-08-03T12:24:56.244Z,966.74
2016-08-03T12:25:56.244Z,966.74
2016-08-03T12:26:56.252Z,966.73
2016-08-03T12:27:56.252Z,966.76
2016-08-03T12:28:56.257Z,966.74
2016-08-03T12:29:56.260Z,966.75
2016-08-03T12:30:56.259Z,966.78
2016-08-03T12:31:56.264Z,966.76
2016-08-03T12:32:56.260Z,966.71
2016-08-03T12:33:56.269Z,966.73
2016-08-03T12:34:56.265Z,966.68
2016-08-03T12:35:56.273Z,966.73
2016-08-03T12:36:56.274Z,966.67
2016-08-03T12:37:56.272Z,966.64
2016-08-03T12:38:56.280Z,966.62
2016-08-03T12:39:56.281Z,966.67
2016-08-03T12:40:56.285Z,966.64
2016-08-03T12:41:56.281Z,966.65
2016-08-03T12:42:56.289Z,966.62
2016-08-03T12:43:56.292Z,966.65